sensor_id;sensor_type;location;lat;lon;timestamp;P1;durP1;ratioP1;P2;durP2;ratioP2
69417;SDS011;56610;48.872;2.400;2023-03-08T00:02:11;11.43;;;9.18;;
69417;SDS011;56610;48.872;2.400;2023-03-08T00:04:37;10.63;;;9.25;;
69417;SDS011;56610;48.872;2.400;2023-03-08T00:07:02;10.70;;;9.60;;
69417;SDS011;56610;48.872;2.400;2023-03-08T00:09:28;11.02;;;9.85;;
69417;SDS011;56610;48.872;2.400;2023-03-08T00:11:53;10.95;;;9.85;;
69417;SDS011;56610;48.872;2.400;2023-03-08T00:14:19;10.25;;;9.15;;
69417;SDS011;56610;48.872;2.400;2023-03-08T00:16:46;10.73;;;9.60;;
69417;SDS011;56610;48.872;2.400;2023-03-08T00:19:12;10.98;;;9.88;;
69417;SDS011;56610;48.872;2.400;2023-03-08T00:21:38;12.57;;;9.70;;
69417;SDS011;56610;48.872;2.400;2023-03-08T00:24:04;11.00;;;9.80;;
69417;SDS011;56610;48.872;2.400;2023-03-08T00:26:29;10.68;;;9.68;;
69417;SDS011;56610;48.872;2.400;2023-03-08T00:28:55;12.18;;;10.88;;
69417;SDS011;56610;48.872;2.400;2023-03-08T00:31:20;11.57;;;10.18;;
69417;SDS011;56610;48.872;2.400;2023-03-08T00:33:46;11.57;;;9.88;;
69417;SDS011;56610;48.872;2.400;2023-03-08T00:36:13;11.43;;;10.20;;
69417;SDS011;56610;48.872;2.400;2023-03-08T00:38:42;10.30;;;9.20;;
69417;SDS011;56610;48.872;2.400;2023-03-08T00:41:09;11.60;;;10.40;;
69417;SDS011;56610;48.872;2.400;2023-03-08T00:43:34;12.05;;;10.48;;
69417;SDS011;56610;48.872;2.400;2023-03-08T00:46:00;12.80;;;10.60;;
69417;SDS011;56610;48.872;2.400;2023-03-08T00:48:26;11.07;;;9.48;;
69417;SDS011;56610;48.872;2.400;2023-03-08T00:50:51;11.60;;;10.43;;
69417;SDS011;56610;48.872;2.400;2023-03-08T00:53:17;11.32;;;9.48;;
69417;SDS011;56610;48.872;2.400;2023-03-08T00:55:53;13.52;;;10.45;;
69417;SDS011;56610;48.872;2.400;2023-03-08T00:58:21;11.80;;;9.65;;
69417;SDS011;56610;48.872;2.400;2023-03-08T01:00:47;12.52;;;9.77;;
69417;SDS011;56610;48.872;2.400;2023-03-08T01:03:13;12.00;;;10.02;;
69417;SDS011;56610;48.872;2.400;2023-03-08T01:05:40;11.52;;;10.10;;
69417;SDS011;56610;48.872;2.400;2023-03-08T01:08:07;11.00;;;9.85;;
69417;SDS011;56610;48.872;2.400;2023-03-08T01:10:33;12.20;;;9.88;;
69417;SDS011;56610;48.872;2.400;2023-03-08T01:12:59;11.27;;;10.15;;
69417;SDS011;56610;48.872;2.400;2023-03-08T01:15:25;13.82;;;10.77;;
69417;SDS011;56610;48.872;2.400;2023-03-08T01:17:51;10.57;;;9.45;;
69417;SDS011;56610;48.872;2.400;2023-03-08T01:20:16;11.75;;;9.23;;
69417;SDS011;56610;48.872;2.400;2023-03-08T01:22:42;13.25;;;10.93;;
69417;SDS011;56610;48.872;2.400;2023-03-08T01:25:08;11.13;;;10.00;;
69417;SDS011;56610;48.872;2.400;2023-03-08T01:27:33;12.32;;;9.80;;
69417;SDS011;56610;48.872;2.400;2023-03-08T01:29:59;13.43;;;10.52;;
69417;SDS011;56610;48.872;2.400;2023-03-08T01:32:25;11.43;;;10.23;;
69417;SDS011;56610;48.872;2.400;2023-03-08T01:34:50;12.55;;;10.73;;
69417;SDS011;56610;48.872;2.400;2023-03-08T01:37:16;10.73;;;9.35;;
69417;SDS011;56610;48.872;2.400;2023-03-08T01:39:42;11.07;;;9.77;;
69417;SDS011;56610;48.872;2.400;2023-03-08T01:42:07;12.63;;;10.10;;
69417;SDS011;56610;48.872;2.400;2023-03-08T01:44:49;11.98;;;10.27;;
69417;SDS011;56610;48.872;2.400;2023-03-08T01:47:20;11.23;;;9.75;;
69417;SDS011;56610;48.872;2.400;2023-03-08T01:49:48;11.05;;;9.38;;
69417;SDS011;56610;48.872;2.400;2023-03-08T01:52:18;11.27;;;9.40;;
69417;SDS011;56610;48.872;2.400;2023-03-08T01:54:50;11.80;;;10.32;;
69417;SDS011;56610;48.872;2.400;2023-03-08T01:59:56;12.23;;;10.02;;
69417;SDS011;56610;48.872;2.400;2023-03-08T02:02:30;10.65;;;9.55;;
69417;SDS011;56610;48.872;2.400;2023-03-08T02:05:07;12.35;;;9.60;;
69417;SDS011;56610;48.872;2.400;2023-03-08T02:07:35;13.20;;;10.88;;
69417;SDS011;56610;48.872;2.400;2023-03-08T02:10:01;11.05;;;9.52;;
69417;SDS011;56610;48.872;2.400;2023-03-08T02:12:27;11.70;;;9.27;;
69417;SDS011;56610;48.872;2.400;2023-03-08T02:14:53;12.15;;;9.25;;
69417;SDS011;56610;48.872;2.400;2023-03-08T02:19:55;11.43;;;9.73;;
69417;SDS011;56610;48.872;2.400;2023-03-08T02:22:25;11.57;;;9.57;;
69417;SDS011;56610;48.872;2.400;2023-03-08T02:24:51;10.55;;;9.32;;
69417;SDS011;56610;48.872;2.400;2023-03-08T02:27:21;11.45;;;9.68;;
69417;SDS011;56610;48.872;2.400;2023-03-08T02:29:49;12.52;;;9.60;;
69417;SDS011;56610;48.872;2.400;2023-03-08T02:32:15;11.35;;;10.18;;
69417;SDS011;56610;48.872;2.400;2023-03-08T02:34:44;11.18;;;9.70;;
69417;SDS011;56610;48.872;2.400;2023-03-08T02:37:09;11.95;;;10.68;;
69417;SDS011;56610;48.872;2.400;2023-03-08T02:39:35;10.40;;;9.30;;
69417;SDS011;56610;48.872;2.400;2023-03-08T02:42:01;12.65;;;10.68;;
69417;SDS011;56610;48.872;2.400;2023-03-08T02:44:26;12.20;;;10.18;;
69417;SDS011;56610;48.872;2.400;2023-03-08T02:46:52;11.35;;;10.10;;
69417;SDS011;56610;48.872;2.400;2023-03-08T02:49:18;12.10;;;10.00;;
69417;SDS011;56610;48.872;2.400;2023-03-08T02:51:43;12.05;;;10.15;;
69417;SDS011;56610;48.872;2.400;2023-03-08T02:54:09;10.50;;;9.30;;
69417;SDS011;56610;48.872;2.400;2023-03-08T02:56:34;11.48;;;10.18;;
69417;SDS011;56610;48.872;2.400;2023-03-08T02:59:01;11.38;;;10.20;;
69417;SDS011;56610;48.872;2.400;2023-03-08T03:01:28;11.98;;;9.55;;
69417;SDS011;56610;48.872;2.400;2023-03-08T03:03:53;11.25;;;10.00;;
69417;SDS011;56610;48.872;2.400;2023-03-08T03:06:19;11.07;;;9.68;;
69417;SDS011;56610;48.872;2.400;2023-03-08T03:08:45;11.57;;;9.90;;
69417;SDS011;56610;48.872;2.400;2023-03-08T03:11:12;10.65;;;9.55;;
69417;SDS011;56610;48.872;2.400;2023-03-08T03:13:42;11.25;;;10.02;;
69417;SDS011;56610;48.872;2.400;2023-03-08T03:16:09;10.98;;;9.75;;
69417;SDS011;56610;48.872;2.400;2023-03-08T03:18:37;10.75;;;9.65;;
69417;SDS011;56610;48.872;2.400;2023-03-08T03:21:03;9.93;;;8.70;;
69417;SDS011;56610;48.872;2.400;2023-03-08T03:23:33;10.13;;;9.13;;
69417;SDS011;56610;48.872;2.400;2023-03-08T03:26:06;12.60;;;9.20;;
69417;SDS011;56610;48.872;2.400;2023-03-08T03:28:36;10.65;;;9.55;;
69417;SDS011;56610;48.872;2.400;2023-03-08T03:31:05;10.30;;;9.27;;
69417;SDS011;56610;48.872;2.400;2023-03-08T03:33:42;10.00;;;8.73;;
69417;SDS011;56610;48.872;2.400;2023-03-08T03:36:09;9.63;;;8.57;;
69417;SDS011;56610;48.872;2.400;2023-03-08T03:38:37;10.20;;;8.73;;
69417;SDS011;56610;48.872;2.400;2023-03-08T03:41:04;9.65;;;8.65;;
69417;SDS011;56610;48.872;2.400;2023-03-08T03:43:34;9.77;;;8.65;;
69417;SDS011;56610;48.872;2.400;2023-03-08T03:46:01;9.65;;;8.65;;
69417;SDS011;56610;48.872;2.400;2023-03-08T03:50:54;8.95;;;8.00;;
69417;SDS011;56610;48.872;2.400;2023-03-08T03:53:24;8.93;;;7.97;;
69417;SDS011;56610;48.872;2.400;2023-03-08T03:55:52;9.90;;;8.70;;
69417;SDS011;56610;48.872;2.400;2023-03-08T03:58:18;9.45;;;8.55;;
69417;SDS011;56610;48.872;2.400;2023-03-08T04:00:43;8.25;;;7.45;;
69417;SDS011;56610;48.872;2.400;2023-03-08T04:06:03;8.45;;;7.65;;
69417;SDS011;56610;48.872;2.400;2023-03-08T04:08:34;9.02;;;8.20;;
69417;SDS011;56610;48.872;2.400;2023-03-08T04:11:05;9.35;;;8.10;;
69417;SDS011;56610;48.872;2.400;2023-03-08T04:13:35;9.27;;;8.38;;
69417;SDS011;56610;48.872;2.400;2023-03-08T04:16:10;8.48;;;7.63;;
69417;SDS011;56610;48.872;2.400;2023-03-08T04:18:38;8.75;;;7.93;;
69417;SDS011;56610;48.872;2.400;2023-03-08T04:21:03;8.65;;;7.75;;
69417;SDS011;56610;48.872;2.400;2023-03-08T04:23:29;8.13;;;7.32;;
69417;SDS011;56610;48.872;2.400;2023-03-08T04:25:55;8.55;;;6.97;;
69417;SDS011;56610;48.872;2.400;2023-03-08T04:28:21;6.88;;;6.00;;
69417;SDS011;56610;48.872;2.400;2023-03-08T04:30:46;7.88;;;7.07;;
69417;SDS011;56610;48.872;2.400;2023-03-08T04:33:12;6.93;;;6.22;;
69417;SDS011;56610;48.872;2.400;2023-03-08T04:35:37;6.88;;;6.20;;
69417;SDS011;56610;48.872;2.400;2023-03-08T04:38:03;6.80;;;6.15;;
69417;SDS011;56610;48.872;2.400;2023-03-08T04:40:29;6.30;;;5.70;;
69417;SDS011;56610;48.872;2.400;2023-03-08T04:42:55;6.22;;;5.72;;
69417;SDS011;56610;48.872;2.400;2023-03-08T04:45:20;6.38;;;5.70;;
69417;SDS011;56610;48.872;2.400;2023-03-08T04:47:46;6.25;;;5.65;;
69417;SDS011;56610;48.872;2.400;2023-03-08T04:50:12;6.18;;;5.68;;
69417;SDS011;56610;48.872;2.400;2023-03-08T04:52:37;6.90;;;5.75;;
69417;SDS011;56610;48.872;2.400;2023-03-08T04:55:03;6.20;;;5.60;;
69417;SDS011;56610;48.872;2.400;2023-03-08T04:57:30;4.82;;;4.32;;
69417;SDS011;56610;48.872;2.400;2023-03-08T04:59:55;5.32;;;4.82;;
69417;SDS011;56610;48.872;2.400;2023-03-08T05:02:21;5.55;;;5.05;;
69417;SDS011;56610;48.872;2.400;2023-03-08T05:04:47;4.93;;;4.35;;
69417;SDS011;56610;48.872;2.400;2023-03-08T05:07:13;5.28;;;4.78;;
69417;SDS011;56610;48.872;2.400;2023-03-08T05:09:38;4.50;;;3.85;;
69417;SDS011;56610;48.872;2.400;2023-03-08T05:12:04;5.60;;;4.38;;
69417;SDS011;56610;48.872;2.400;2023-03-08T05:14:30;5.35;;;4.85;;
69417;SDS011;56610;48.872;2.400;2023-03-08T05:16:55;5.75;;;4.95;;
69417;SDS011;56610;48.872;2.400;2023-03-08T05:19:22;5.60;;;4.60;;
69417;SDS011;56610;48.872;2.400;2023-03-08T05:21:48;6.00;;;5.40;;
69417;SDS011;56610;48.872;2.400;2023-03-08T05:24:13;5.25;;;4.75;;
69417;SDS011;56610;48.872;2.400;2023-03-08T05:26:39;6.53;;;4.65;;
69417;SDS011;56610;48.872;2.400;2023-03-08T05:29:05;5.00;;;4.50;;
69417;SDS011;56610;48.872;2.400;2023-03-08T05:31:31;4.40;;;4.00;;
69417;SDS011;56610;48.872;2.400;2023-03-08T05:33:57;4.70;;;4.30;;
69417;SDS011;56610;48.872;2.400;2023-03-08T05:36:23;4.40;;;4.00;;
69417;SDS011;56610;48.872;2.400;2023-03-08T05:38:52;4.10;;;3.67;;
69417;SDS011;56610;48.872;2.400;2023-03-08T05:41:18;3.90;;;3.60;;
69417;SDS011;56610;48.872;2.400;2023-03-08T05:43:44;4.45;;;4.05;;
69417;SDS011;56610;48.872;2.400;2023-03-08T05:46:11;3.97;;;3.67;;
69417;SDS011;56610;48.872;2.400;2023-03-08T05:48:39;3.50;;;3.20;;
69417;SDS011;56610;48.872;2.400;2023-03-08T05:51:09;4.68;;;4.28;;
69417;SDS011;56610;48.872;2.400;2023-03-08T05:53:37;5.18;;;4.68;;
69417;SDS011;56610;48.872;2.400;2023-03-08T05:56:09;6.18;;;5.25;;
69417;SDS011;56610;48.872;2.400;2023-03-08T05:58:36;4.95;;;4.50;;
69417;SDS011;56610;48.872;2.400;2023-03-08T06:01:13;4.55;;;4.07;;
69417;SDS011;56610;48.872;2.400;2023-03-08T06:03:43;5.07;;;4.28;;
69417;SDS011;56610;48.872;2.400;2023-03-08T06:06:10;4.40;;;3.97;;
69417;SDS011;56610;48.872;2.400;2023-03-08T06:08:36;3.95;;;3.55;;
69417;SDS011;56610;48.872;2.400;2023-03-08T06:11:01;4.30;;;3.90;;
69417;SDS011;56610;48.872;2.400;2023-03-08T06:13:27;3.85;;;3.30;;
69417;SDS011;56610;48.872;2.400;2023-03-08T06:15:54;3.58;;;3.28;;
69417;SDS011;56610;48.872;2.400;2023-03-08T06:18:20;3.47;;;3.07;;
69417;SDS011;56610;48.872;2.400;2023-03-08T06:20:56;4.18;;;3.78;;
69417;SDS011;56610;48.872;2.400;2023-03-08T06:23:27;4.20;;;3.67;;
69417;SDS011;56610;48.872;2.400;2023-03-08T06:25:54;4.40;;;4.00;;
69417;SDS011;56610;48.872;2.400;2023-03-08T06:28:20;4.88;;;4.38;;
69417;SDS011;56610;48.872;2.400;2023-03-08T06:30:47;4.22;;;3.90;;
69417;SDS011;56610;48.872;2.400;2023-03-08T06:33:14;3.95;;;3.65;;
69417;SDS011;56610;48.872;2.400;2023-03-08T06:35:43;4.03;;;3.55;;
69417;SDS011;56610;48.872;2.400;2023-03-08T06:38:18;4.05;;;3.65;;
69417;SDS011;56610;48.872;2.400;2023-03-08T06:40:44;3.80;;;3.50;;
69417;SDS011;56610;48.872;2.400;2023-03-08T06:43:09;3.38;;;3.08;;
69417;SDS011;56610;48.872;2.400;2023-03-08T06:45:36;3.42;;;3.13;;
69417;SDS011;56610;48.872;2.400;2023-03-08T06:48:02;3.50;;;3.20;;
69417;SDS011;56610;48.872;2.400;2023-03-08T06:50:28;3.20;;;2.90;;
69417;SDS011;56610;48.872;2.400;2023-03-08T06:52:53;2.70;;;2.50;;
69417;SDS011;56610;48.872;2.400;2023-03-08T06:55:19;2.92;;;2.72;;
69417;SDS011;56610;48.872;2.400;2023-03-08T06:57:44;2.30;;;2.20;;
69417;SDS011;56610;48.872;2.400;2023-03-08T07:00:11;2.53;;;2.33;;
69417;SDS011;56610;48.872;2.400;2023-03-08T07:02:37;2.60;;;2.40;;
69417;SDS011;56610;48.872;2.400;2023-03-08T07:05:03;2.40;;;2.20;;
69417;SDS011;56610;48.872;2.400;2023-03-08T07:07:29;2.40;;;2.20;;
69417;SDS011;56610;48.872;2.400;2023-03-08T07:09:54;2.30;;;2.10;;
69417;SDS011;56610;48.872;2.400;2023-03-08T07:12:21;2.25;;;2.08;;
69417;SDS011;56610;48.872;2.400;2023-03-08T07:14:47;1.98;;;1.77;;
69417;SDS011;56610;48.872;2.400;2023-03-08T07:17:15;2.13;;;1.92;;
69417;SDS011;56610;48.872;2.400;2023-03-08T07:19:40;1.92;;;1.80;;
69417;SDS011;56610;48.872;2.400;2023-03-08T07:22:06;2.25;;;1.92;;
69417;SDS011;56610;48.872;2.400;2023-03-08T07:24:32;1.88;;;1.73;;
69417;SDS011;56610;48.872;2.400;2023-03-08T07:26:57;2.50;;;2.10;;
69417;SDS011;56610;48.872;2.400;2023-03-08T07:29:23;1.88;;;1.50;;
69417;SDS011;56610;48.872;2.400;2023-03-08T07:31:51;2.63;;;1.60;;
69417;SDS011;56610;48.872;2.400;2023-03-08T07:34:17;1.70;;;1.60;;
69417;SDS011;56610;48.872;2.400;2023-03-08T07:36:43;2.47;;;1.40;;
69417;SDS011;56610;48.872;2.400;2023-03-08T07:39:08;2.95;;;1.60;;
69417;SDS011;56610;48.872;2.400;2023-03-08T07:41:34;1.92;;;1.50;;
69417;SDS011;56610;48.872;2.400;2023-03-08T07:44:00;4.88;;;1.42;;
69417;SDS011;56610;48.872;2.400;2023-03-08T07:46:26;2.13;;;1.20;;
69417;SDS011;56610;48.872;2.400;2023-03-08T07:48:52;3.90;;;1.50;;
69417;SDS011;56610;48.872;2.400;2023-03-08T07:51:18;2.88;;;1.30;;
69417;SDS011;56610;48.872;2.400;2023-03-08T07:53:43;3.38;;;1.48;;
69417;SDS011;56610;48.872;2.400;2023-03-08T07:56:09;3.65;;;1.33;;
69417;SDS011;56610;48.872;2.400;2023-03-08T07:58:35;1.63;;;1.08;;
69417;SDS011;56610;48.872;2.400;2023-03-08T08:01:06;2.17;;;1.00;;
69417;SDS011;56610;48.872;2.400;2023-03-08T08:03:36;2.85;;;1.35;;
69417;SDS011;56610;48.872;2.400;2023-03-08T08:06:02;2.83;;;1.08;;
69417;SDS011;56610;48.872;2.400;2023-03-08T08:08:29;3.95;;;1.40;;
69417;SDS011;56610;48.872;2.400;2023-03-08T08:10:54;3.63;;;1.10;;
69417;SDS011;56610;48.872;2.400;2023-03-08T08:13:20;3.33;;;1.25;;
69417;SDS011;56610;48.872;2.400;2023-03-08T08:15:45;4.18;;;1.75;;
69417;SDS011;56610;48.872;2.400;2023-03-08T08:18:11;3.33;;;1.50;;
69417;SDS011;56610;48.872;2.400;2023-03-08T08:20:37;3.83;;;1.50;;
69417;SDS011;56610;48.872;2.400;2023-03-08T08:23:05;4.90;;;1.50;;
69417;SDS011;56610;48.872;2.400;2023-03-08T08:25:31;5.93;;;1.33;;
69417;SDS011;56610;48.872;2.400;2023-03-08T08:27:57;3.85;;;1.55;;
69417;SDS011;56610;48.872;2.400;2023-03-08T08:30:22;4.95;;;1.50;;
69417;SDS011;56610;48.872;2.400;2023-03-08T08:32:48;3.50;;;1.38;;
69417;SDS011;56610;48.872;2.400;2023-03-08T08:35:16;3.90;;;1.20;;
69417;SDS011;56610;48.872;2.400;2023-03-08T08:37:43;4.45;;;1.40;;
69417;SDS011;56610;48.872;2.400;2023-03-08T08:40:09;4.22;;;1.20;;
69417;SDS011;56610;48.872;2.400;2023-03-08T08:42:36;5.85;;;1.67;;
69417;SDS011;56610;48.872;2.400;2023-03-08T08:45:01;3.80;;;1.30;;
69417;SDS011;56610;48.872;2.400;2023-03-08T08:47:28;3.97;;;1.50;;
69417;SDS011;56610;48.872;2.400;2023-03-08T08:49:53;3.60;;;1.55;;
69417;SDS011;56610;48.872;2.400;2023-03-08T08:52:19;6.90;;;1.90;;
69417;SDS011;56610;48.872;2.400;2023-03-08T08:54:44;5.10;;;1.80;;
69417;SDS011;56610;48.872;2.400;2023-03-08T08:57:10;5.60;;;1.42;;
69417;SDS011;56610;48.872;2.400;2023-03-08T08:59:35;4.88;;;1.45;;
69417;SDS011;56610;48.872;2.400;2023-03-08T09:02:01;4.78;;;1.33;;
69417;SDS011;56610;48.872;2.400;2023-03-08T09:04:27;8.90;;;1.85;;
69417;SDS011;56610;48.872;2.400;2023-03-08T09:06:52;4.60;;;1.48;;
69417;SDS011;56610;48.872;2.400;2023-03-08T09:09:18;4.90;;;1.30;;
69417;SDS011;56610;48.872;2.400;2023-03-08T09:11:44;2.65;;;1.20;;
69417;SDS011;56610;48.872;2.400;2023-03-08T09:14:12;5.75;;;1.50;;
69417;SDS011;56610;48.872;2.400;2023-03-08T09:16:38;4.85;;;1.63;;
69417;SDS011;56610;48.872;2.400;2023-03-08T09:19:04;4.95;;;1.52;;
69417;SDS011;56610;48.872;2.400;2023-03-08T09:21:30;5.53;;;1.27;;
69417;SDS011;56610;48.872;2.400;2023-03-08T09:24:00;3.78;;;1.30;;
69417;SDS011;56610;48.872;2.400;2023-03-08T09:26:28;4.95;;;1.73;;
69417;SDS011;56610;48.872;2.400;2023-03-08T09:28:55;4.28;;;1.77;;
69417;SDS011;56610;48.872;2.400;2023-03-08T09:31:22;4.63;;;1.30;;
69417;SDS011;56610;48.872;2.400;2023-03-08T09:33:48;4.32;;;1.30;;
69417;SDS011;56610;48.872;2.400;2023-03-08T09:36:18;6.28;;;1.33;;
69417;SDS011;56610;48.872;2.400;2023-03-08T09:38:45;3.47;;;1.30;;
69417;SDS011;56610;48.872;2.400;2023-03-08T09:43:48;4.78;;;1.42;;
69417;SDS011;56610;48.872;2.400;2023-03-08T09:46:53;3.30;;;1.20;;
69417;SDS011;56610;48.872;2.400;2023-03-08T09:49:30;3.60;;;1.40;;
69417;SDS011;56610;48.872;2.400;2023-03-08T09:52:02;2.75;;;1.10;;
69417;SDS011;56610;48.872;2.400;2023-03-08T09:54:29;2.40;;;0.90;;
69417;SDS011;56610;48.872;2.400;2023-03-08T09:56:57;3.03;;;1.33;;
69417;SDS011;56610;48.872;2.400;2023-03-08T10:10:36;4.55;;;1.17;;
69417;SDS011;56610;48.872;2.400;2023-03-08T10:16:02;3.58;;;1.63;;
69417;SDS011;56610;48.872;2.400;2023-03-08T10:18:37;5.75;;;1.67;;
69417;SDS011;56610;48.872;2.400;2023-03-08T10:21:16;3.95;;;1.73;;
69417;SDS011;56610;48.872;2.400;2023-03-08T10:23:45;3.60;;;1.30;;
69417;SDS011;56610;48.872;2.400;2023-03-08T10:26:13;4.45;;;1.83;;
69417;SDS011;56610;48.872;2.400;2023-03-08T10:28:39;5.47;;;1.70;;
69417;SDS011;56610;48.872;2.400;2023-03-08T10:31:17;4.07;;;1.20;;
69417;SDS011;56610;48.872;2.400;2023-03-08T10:33:45;3.90;;;1.60;;
69417;SDS011;56610;48.872;2.400;2023-03-08T10:36:23;3.00;;;1.40;;
69417;SDS011;56610;48.872;2.400;2023-03-08T10:38:56;4.18;;;1.30;;
69417;SDS011;56610;48.872;2.400;2023-03-08T10:41:42;3.75;;;1.85;;
69417;SDS011;56610;48.872;2.400;2023-03-08T10:44:26;3.33;;;1.13;;
69417;SDS011;56610;48.872;2.400;2023-03-08T10:47:03;3.63;;;1.27;;
69417;SDS011;56610;48.872;2.400;2023-03-08T10:49:41;3.00;;;1.48;;
69417;SDS011;56610;48.872;2.400;2023-03-08T10:52:13;2.10;;;1.00;;
69417;SDS011;56610;48.872;2.400;2023-03-08T10:55:01;2.95;;;1.17;;
69417;SDS011;56610;48.872;2.400;2023-03-08T10:57:38;2.83;;;1.08;;
69417;SDS011;56610;48.872;2.400;2023-03-08T11:02:44;5.13;;;1.48;;
69417;SDS011;56610;48.872;2.400;2023-03-08T11:05:21;6.97;;;1.88;;
69417;SDS011;56610;48.872;2.400;2023-03-08T11:07:54;5.18;;;1.52;;
69417;SDS011;56610;48.872;2.400;2023-03-08T11:10:22;3.13;;;1.05;;
69417;SDS011;56610;48.872;2.400;2023-03-08T11:16:01;3.13;;;1.10;;
69417;SDS011;56610;48.872;2.400;2023-03-08T11:21:19;4.10;;;1.45;;
69417;SDS011;56610;48.872;2.400;2023-03-08T11:23:58;2.65;;;1.15;;
69417;SDS011;56610;48.872;2.400;2023-03-08T11:26:39;2.80;;;1.00;;
69417;SDS011;56610;48.872;2.400;2023-03-08T11:34:56;2.92;;;1.50;;
69417;SDS011;56610;48.872;2.400;2023-03-08T11:37:43;2.55;;;1.20;;
69417;SDS011;56610;48.872;2.400;2023-03-08T11:40:23;2.38;;;1.38;;
69417;SDS011;56610;48.872;2.400;2023-03-08T11:45:40;2.38;;;0.82;;
69417;SDS011;56610;48.872;2.400;2023-03-08T11:54:02;1.58;;;1.10;;
69417;SDS011;56610;48.872;2.400;2023-03-08T11:59:19;2.20;;;1.00;;
69417;SDS011;56610;48.872;2.400;2023-03-08T12:07:42;2.33;;;1.00;;
69417;SDS011;56610;48.872;2.400;2023-03-08T12:17:56;2.08;;;1.48;;
69417;SDS011;56610;48.872;2.400;2023-03-08T12:20:30;3.58;;;1.50;;
69417;SDS011;56610;48.872;2.400;2023-03-08T12:23:07;1.98;;;1.08;;
69417;SDS011;56610;48.872;2.400;2023-03-08T12:25:46;2.42;;;1.20;;
69417;SDS011;56610;48.872;2.400;2023-03-08T12:28:24;3.38;;;1.23;;
69417;SDS011;56610;48.872;2.400;2023-03-08T12:33:31;3.63;;;1.20;;
69417;SDS011;56610;48.872;2.400;2023-03-08T12:36:06;3.15;;;1.13;;
69417;SDS011;56610;48.872;2.400;2023-03-08T12:38:34;3.90;;;1.45;;
69417;SDS011;56610;48.872;2.400;2023-03-08T12:41:05;4.68;;;1.50;;
69417;SDS011;56610;48.872;2.400;2023-03-08T12:43:45;3.80;;;1.50;;
69417;SDS011;56610;48.872;2.400;2023-03-08T12:46:11;3.20;;;1.35;;
69417;SDS011;56610;48.872;2.400;2023-03-08T12:53:40;3.45;;;1.10;;
69417;SDS011;56610;48.872;2.400;2023-03-08T12:58:52;3.38;;;1.27;;
69417;SDS011;56610;48.872;2.400;2023-03-08T13:01:42;2.78;;;1.13;;
69417;SDS011;56610;48.872;2.400;2023-03-08T13:04:24;2.35;;;1.20;;
69417;SDS011;56610;48.872;2.400;2023-03-08T13:14:40;3.58;;;1.33;;
69417;SDS011;56610;48.872;2.400;2023-03-08T13:20:13;3.50;;;1.10;;
69417;SDS011;56610;48.872;2.400;2023-03-08T13:22:52;3.03;;;1.30;;
69417;SDS011;56610;48.872;2.400;2023-03-08T13:28:20;3.22;;;1.00;;
69417;SDS011;56610;48.872;2.400;2023-03-08T13:30:57;2.55;;;1.10;;
69417;SDS011;56610;48.872;2.400;2023-03-08T13:33:28;3.50;;;0.98;;
69417;SDS011;56610;48.872;2.400;2023-03-08T13:35:58;2.70;;;1.30;;
69417;SDS011;56610;48.872;2.400;2023-03-08T13:38:27;3.58;;;1.30;;
69417;SDS011;56610;48.872;2.400;2023-03-08T13:40:55;2.70;;;1.20;;
69417;SDS011;56610;48.872;2.400;2023-03-08T13:43:23;2.85;;;1.33;;
69417;SDS011;56610;48.872;2.400;2023-03-08T13:45:51;3.25;;;1.20;;
69417;SDS011;56610;48.872;2.400;2023-03-08T13:48:19;3.15;;;1.70;;
69417;SDS011;56610;48.872;2.400;2023-03-08T13:50:47;3.93;;;1.30;;
69417;SDS011;56610;48.872;2.400;2023-03-08T13:53:19;3.50;;;1.25;;
69417;SDS011;56610;48.872;2.400;2023-03-08T13:55:48;3.80;;;1.30;;
69417;SDS011;56610;48.872;2.400;2023-03-08T13:58:32;2.47;;;0.98;;
69417;SDS011;56610;48.872;2.400;2023-03-08T14:01:11;3.58;;;1.20;;
69417;SDS011;56610;48.872;2.400;2023-03-08T14:03:39;1.30;;;0.70;;
69417;SDS011;56610;48.872;2.400;2023-03-08T14:08:45;1.70;;;1.00;;
69417;SDS011;56610;48.872;2.400;2023-03-08T14:11:13;2.53;;;1.00;;
69417;SDS011;56610;48.872;2.400;2023-03-08T14:13:49;2.13;;;1.10;;
69417;SDS011;56610;48.872;2.400;2023-03-08T14:16:22;4.35;;;1.20;;
69417;SDS011;56610;48.872;2.400;2023-03-08T14:18:59;2.05;;;1.00;;
69417;SDS011;56610;48.872;2.400;2023-03-08T14:21:45;1.65;;;1.10;;
69417;SDS011;56610;48.872;2.400;2023-03-08T14:24:17;2.30;;;1.10;;
69417;SDS011;56610;48.872;2.400;2023-03-08T14:29:22;2.00;;;1.10;;
69417;SDS011;56610;48.872;2.400;2023-03-08T14:34:27;2.35;;;1.35;;
69417;SDS011;56610;48.872;2.400;2023-03-08T14:37:23;3.38;;;1.38;;
69417;SDS011;56610;48.872;2.400;2023-03-08T14:39:53;3.72;;;1.40;;
69417;SDS011;56610;48.872;2.400;2023-03-08T14:42:34;2.13;;;1.23;;
69417;SDS011;56610;48.872;2.400;2023-03-08T14:45:15;2.78;;;1.55;;
69417;SDS011;56610;48.872;2.400;2023-03-08T14:47:54;4.82;;;2.38;;
69417;SDS011;56610;48.872;2.400;2023-03-08T14:50:31;4.40;;;1.90;;
69417;SDS011;56610;48.872;2.400;2023-03-08T14:52:59;3.22;;;1.60;;
69417;SDS011;56610;48.872;2.400;2023-03-08T14:55:30;5.20;;;1.80;;
69417;SDS011;56610;48.872;2.400;2023-03-08T14:57:58;4.00;;;1.50;;
69417;SDS011;56610;48.872;2.400;2023-03-08T15:00:26;3.30;;;1.17;;
69417;SDS011;56610;48.872;2.400;2023-03-08T15:02:54;2.17;;;1.00;;
69417;SDS011;56610;48.872;2.400;2023-03-08T15:05:21;6.75;;;2.58;;
69417;SDS011;56610;48.872;2.400;2023-03-08T15:07:48;7.32;;;3.47;;
69417;SDS011;56610;48.872;2.400;2023-03-08T15:10:16;6.22;;;4.88;;
69417;SDS011;56610;48.872;2.400;2023-03-08T15:13:04;10.73;;;7.53;;
69417;SDS011;56610;48.872;2.400;2023-03-08T15:15:33;10.32;;;7.40;;
69417;SDS011;56610;48.872;2.400;2023-03-08T15:17:58;7.60;;;5.97;;
69417;SDS011;56610;48.872;2.400;2023-03-08T15:20:24;5.63;;;3.70;;
69417;SDS011;56610;48.872;2.400;2023-03-08T15:22:51;7.35;;;3.88;;
69417;SDS011;56610;48.872;2.400;2023-03-08T15:25:33;3.95;;;2.13;;
69417;SDS011;56610;48.872;2.400;2023-03-08T15:28:00;2.17;;;1.67;;
69417;SDS011;56610;48.872;2.400;2023-03-08T15:30:27;2.85;;;1.50;;
69417;SDS011;56610;48.872;2.400;2023-03-08T15:32:54;2.53;;;1.63;;
69417;SDS011;56610;48.872;2.400;2023-03-08T15:35:20;1.85;;;1.30;;
69417;SDS011;56610;48.872;2.400;2023-03-08T15:37:46;3.05;;;1.40;;
69417;SDS011;56610;48.872;2.400;2023-03-08T15:40:13;2.63;;;0.90;;
69417;SDS011;56610;48.872;2.400;2023-03-08T15:42:43;2.25;;;0.98;;
69417;SDS011;56610;48.872;2.400;2023-03-08T15:45:10;1.63;;;0.90;;
69417;SDS011;56610;48.872;2.400;2023-03-08T15:47:36;2.60;;;1.00;;
69417;SDS011;56610;48.872;2.400;2023-03-08T15:52:48;1.30;;;0.77;;
69417;SDS011;56610;48.872;2.400;2023-03-08T15:55:13;3.65;;;1.10;;
69417;SDS011;56610;48.872;2.400;2023-03-08T15:57:39;1.33;;;0.90;;
69417;SDS011;56610;48.872;2.400;2023-03-08T16:00:06;1.20;;;0.90;;
69417;SDS011;56610;48.872;2.400;2023-03-08T16:02:35;1.88;;;1.05;;
69417;SDS011;56610;48.872;2.400;2023-03-08T16:05:22;1.38;;;0.80;;
69417;SDS011;56610;48.872;2.400;2023-03-08T16:07:55;1.10;;;0.70;;
69417;SDS011;56610;48.872;2.400;2023-03-08T16:10:23;1.60;;;0.80;;
69417;SDS011;56610;48.872;2.400;2023-03-08T16:12:50;1.45;;;0.93;;
69417;SDS011;56610;48.872;2.400;2023-03-08T16:15:15;1.40;;;0.85;;
69417;SDS011;56610;48.872;2.400;2023-03-08T16:17:44;1.60;;;0.80;;
69417;SDS011;56610;48.872;2.400;2023-03-08T16:20:10;1.30;;;0.60;;
69417;SDS011;56610;48.872;2.400;2023-03-08T16:22:38;1.42;;;0.77;;
69417;SDS011;56610;48.872;2.400;2023-03-08T16:25:04;1.35;;;0.90;;
69417;SDS011;56610;48.872;2.400;2023-03-08T16:27:31;1.67;;;0.80;;
69417;SDS011;56610;48.872;2.400;2023-03-08T16:29:58;3.40;;;1.13;;
69417;SDS011;56610;48.872;2.400;2023-03-08T16:32:24;3.75;;;1.05;;
69417;SDS011;56610;48.872;2.400;2023-03-08T16:34:56;2.40;;;1.13;;